createdAt,value
2019-02-20T00:00:43.069Z,14.90
2019-02-20T00:03:11.863Z,15.77
2019-02-20T00:05:40.700Z,25.40
2019-02-20T00:08:09.496Z,16.23
2019-02-20T00:10:38.429Z,17.77
2019-02-20T00:13:07.220Z,15.07
2019-02-20T00:15:35.935Z,16.63
2019-02-20T00:18:04.668Z,15.23
2019-02-20T00:20:33.380Z,22.73
2019-02-20T00:23:02.097Z,14.50
2019-02-20T00:25:30.823Z,21.30
2019-02-20T00:27:59.623Z,18.57
2019-02-20T00:30:28.338Z,25.20
2019-02-20T00:32:57.138Z,19.43
2019-02-20T00:35:25.844Z,16.70
2019-02-20T00:37:54.572Z,25.43
2019-02-20T00:40:23.293Z,16.53
2019-02-20T00:42:51.994Z,20.27
2019-02-20T00:45:30.498Z,15.33
2019-02-20T00:48:27.413Z,21.97
2019-02-20T00:51:03.964Z,21.30
2019-02-20T00:53:37.589Z,16.13
2019-02-20T00:56:06.434Z,16.03
2019-02-20T00:58:35.240Z,16.17
2019-02-20T01:01:04.004Z,26.20
2019-02-20T01:03:32.812Z,15.87
2019-02-20T01:06:01.526Z,13.00
2019-02-20T01:08:30.244Z,16.83
2019-02-20T01:10:59.061Z,24.63
2019-02-20T01:13:27.795Z,18.47
2019-02-20T01:15:56.624Z,20.17
2019-02-20T01:18:25.384Z,29.00
2019-02-20T01:20:54.185Z,21.27
2019-02-20T01:23:22.990Z,21.80
2019-02-20T01:25:51.776Z,20.20
2019-02-20T01:28:20.552Z,19.00
2019-02-20T01:30:49.298Z,18.37
2019-02-20T01:33:18.060Z,17.27
2019-02-20T01:35:46.830Z,16.60
2019-02-20T01:38:15.575Z,19.90
2019-02-20T01:40:44.388Z,17.73
2019-02-20T01:43:13.130Z,13.77
2019-02-20T01:45:42.134Z,17.70
2019-02-20T01:48:10.878Z,15.33
2019-02-20T01:50:39.602Z,15.50
2019-02-20T01:53:10.646Z,25.73
2019-02-20T01:55:38.889Z,16.10
2019-02-20T01:58:07.662Z,19.40
2019-02-20T02:00:36.430Z,21.13
2019-02-20T02:03:05.268Z,22.17
2019-02-20T02:05:34.002Z,13.57
2019-02-20T02:08:21.840Z,15.47
2019-02-20T02:10:50.564Z,20.03
2019-02-20T02:13:19.350Z,19.20
2019-02-20T02:15:48.068Z,14.87
2019-02-20T02:18:16.787Z,14.20
2019-02-20T02:20:46.392Z,16.70
2019-02-20T02:23:19.867Z,15.10
2019-02-20T02:25:45.565Z,17.73
2019-02-20T02:28:14.360Z,24.90
2019-02-20T02:30:43.199Z,16.20
2019-02-20T02:33:11.973Z,14.33
2019-02-20T02:35:40.788Z,14.83
2019-02-20T02:38:09.491Z,17.43
2019-02-20T02:40:38.309Z,19.27
2019-02-20T02:43:07.063Z,11.23
2019-02-20T02:45:35.860Z,17.90
2019-02-20T02:48:04.624Z,17.43
2019-02-20T02:50:33.363Z,15.90
2019-02-20T02:53:02.059Z,15.03
2019-02-20T02:55:30.798Z,15.77
2019-02-20T02:57:59.603Z,17.53
2019-02-20T03:00:28.410Z,15.00
2019-02-20T03:02:57.219Z,15.80
2019-02-20T03:05:26.049Z,14.83
2019-02-20T03:07:54.863Z,14.53
2019-02-20T03:10:23.572Z,12.90
2019-02-20T03:12:52.354Z,14.03
2019-02-20T03:15:21.268Z,19.37
2019-02-20T03:17:49.999Z,19.10
2019-02-20T03:20:18.816Z,19.70
2019-02-20T03:22:47.634Z,18.33
2019-02-20T03:25:16.376Z,16.33
2019-02-20T03:27:45.146Z,16.87
2019-02-20T03:30:13.957Z,15.07
2019-02-20T03:32:42.759Z,18.00
2019-02-20T03:35:11.480Z,15.67
2019-02-20T03:37:40.283Z,16.27
2019-02-20T03:40:09.179Z,14.47
2019-02-20T03:42:37.965Z,11.87
2019-02-20T03:45:06.765Z,16.17
2019-02-20T03:47:35.673Z,10.03
2019-02-20T03:50:04.472Z,19.33
2019-02-20T03:52:33.262Z,11.87
2019-02-20T03:55:02.020Z,18.57
2019-02-20T03:57:30.795Z,20.37
2019-02-20T03:59:59.500Z,13.57
2019-02-20T04:02:28.271Z,21.83
2019-02-20T04:04:57.054Z,17.23
2019-02-20T04:07:32.991Z,20.70
2019-02-20T04:10:01.717Z,16.10
2019-02-20T04:12:30.493Z,15.23
2019-02-20T04:14:59.286Z,12.63
2019-02-20T04:17:28.056Z,27.40
2019-02-20T04:19:56.759Z,17.10
2019-02-20T04:22:25.742Z,15.87
2019-02-20T04:24:54.451Z,18.97
2019-02-20T04:27:23.209Z,17.27
2019-02-20T04:29:51.942Z,21.50
2019-02-20T04:32:20.749Z,22.50
2019-02-20T04:34:49.455Z,21.03
2019-02-20T04:37:18.214Z,21.87
2019-02-20T04:39:46.928Z,24.00
2019-02-20T04:42:15.661Z,25.87
2019-02-20T04:44:44.462Z,26.13
2019-02-20T04:47:13.204Z,27.57
2019-02-20T04:49:41.930Z,25.93
2019-02-20T04:52:10.752Z,25.17
2019-02-20T04:54:39.547Z,21.53
2019-02-20T04:57:08.235Z,24.37
2019-02-20T04:59:37.044Z,20.37
2019-02-20T05:02:05.770Z,26.00
2019-02-20T05:04:34.562Z,28.83
2019-02-20T05:07:03.380Z,24.80
2019-02-20T05:09:32.153Z,20.37
2019-02-20T05:12:00.967Z,26.03
2019-02-20T05:14:29.807Z,21.23
2019-02-20T05:16:58.602Z,23.03
2019-02-20T05:19:27.413Z,27.93
2019-02-20T05:21:56.138Z,23.90
2019-02-20T05:24:25.353Z,30.30
2019-02-20T05:26:54.125Z,24.00
2019-02-20T05:29:22.960Z,29.17
2019-02-20T05:31:51.737Z,21.87
2019-02-20T05:34:20.548Z,26.23
2019-02-20T05:36:49.319Z,18.77
2019-02-20T05:39:18.089Z,23.60
2019-02-20T05:41:46.854Z,26.03
2019-02-20T05:44:15.656Z,23.07
2019-02-20T05:46:44.388Z,22.23
2019-02-20T05:49:13.128Z,23.10
2019-02-20T05:51:41.965Z,25.97
2019-02-20T05:54:10.746Z,23.10
2019-02-20T05:56:39.536Z,25.27
2019-02-20T05:59:08.348Z,13.80
2019-02-20T06:01:37.153Z,25.87
2019-02-20T06:04:05.941Z,23.30
2019-02-20T06:06:34.769Z,31.97
2019-02-20T06:09:04.635Z,20.00
2019-02-20T06:11:33.420Z,24.27
2019-02-20T06:14:02.164Z,20.23
2019-02-20T06:16:30.956Z,21.33
2019-02-20T06:18:59.726Z,24.00
2019-02-20T06:21:28.463Z,23.50
2019-02-20T06:23:59.837Z,25.73
2019-02-20T06:26:33.156Z,27.30
2019-02-20T06:29:01.991Z,24.00
2019-02-20T06:31:44.433Z,23.90
2019-02-20T06:34:20.268Z,23.50
2019-02-20T06:37:19.900Z,26.97
2019-02-20T06:39:50.722Z,22.67
2019-02-20T06:45:25.541Z,29.83
2019-02-20T06:47:54.231Z,26.50
2019-02-20T06:50:22.977Z,30.13
2019-02-20T06:52:51.707Z,23.90
2019-02-20T06:55:20.454Z,21.37
2019-02-20T06:57:49.223Z,24.50
2019-02-20T07:00:18.052Z,26.03
2019-02-20T07:02:46.855Z,19.00
2019-02-20T07:05:50.169Z,32.20
2019-02-20T07:08:50.375Z,28.03
2019-02-20T07:11:50.319Z,24.83
2019-02-20T07:14:26.851Z,27.00
2019-02-20T07:17:29.815Z,30.90
2019-02-20T07:20:20.559Z,25.93
2019-02-20T07:23:02.424Z,27.97
2019-02-20T07:25:37.932Z,21.07
2019-02-20T07:28:31.764Z,33.07
2019-02-20T07:31:00.558Z,19.43
2019-02-20T07:33:29.355Z,27.50
2019-02-20T07:35:58.171Z,25.67
2019-02-20T07:38:26.914Z,30.47
2019-02-20T07:40:55.746Z,35.00
2019-02-20T07:43:24.482Z,22.93
2019-02-20T07:45:53.318Z,23.57
2019-02-20T07:48:22.045Z,26.10
2019-02-20T07:50:50.866Z,28.40
2019-02-20T07:53:19.650Z,20.80
2019-02-20T07:55:48.418Z,27.93
2019-02-20T07:58:17.184Z,25.57
2019-02-20T08:00:45.883Z,29.67
2019-02-20T08:03:14.610Z,22.00
2019-02-20T08:05:43.438Z,27.90
2019-02-20T08:08:12.159Z,27.03
2019-02-20T08:10:40.896Z,26.33
2019-02-20T08:13:09.724Z,26.97
2019-02-20T08:15:38.451Z,28.67
2019-02-20T08:18:07.252Z,29.40
2019-02-20T08:20:35.981Z,24.20
2019-02-20T08:23:04.732Z,35.67
2019-02-20T08:25:33.450Z,31.40
2019-02-20T08:28:02.215Z,21.67
2019-02-20T08:30:31.028Z,30.73
2019-02-20T08:32:59.888Z,28.97
2019-02-20T08:35:28.720Z,26.13
2019-02-20T08:37:57.470Z,33.67
2019-02-20T08:40:26.172Z,27.00
2019-02-20T08:42:55.012Z,35.20
2019-02-20T08:45:23.799Z,33.47
2019-02-20T08:47:52.531Z,23.30
2019-02-20T08:50:21.276Z,26.40
2019-02-20T08:52:50.084Z,27.03
2019-02-20T08:55:19.061Z,25.83
2019-02-20T08:57:48.044Z,26.93
2019-02-20T09:00:16.981Z,21.47
2019-02-20T09:02:45.717Z,23.03
2019-02-20T09:05:14.553Z,27.20
2019-02-20T09:07:43.368Z,22.73
2019-02-20T09:10:12.175Z,31.90
2019-02-20T09:12:40.991Z,29.60
2019-02-20T09:15:09.795Z,24.97
2019-02-20T09:17:38.621Z,27.20
2019-02-20T09:20:07.761Z,23.90
2019-02-20T09:22:36.576Z,18.83
2019-02-20T09:25:06.101Z,21.37
2019-02-20T09:27:35.039Z,19.47
2019-02-20T09:30:03.783Z,25.80
2019-02-20T09:32:32.567Z,24.87
2019-02-20T09:35:01.308Z,26.53
2019-02-20T09:37:30.120Z,23.07
2019-02-20T09:39:58.910Z,26.33
2019-02-20T09:42:27.665Z,20.00
2019-02-20T09:44:56.400Z,25.33
2019-02-20T09:47:25.101Z,28.53
2019-02-20T09:49:53.865Z,23.93
2019-02-20T09:52:22.591Z,25.03
2019-02-20T09:54:51.334Z,21.80
2019-02-20T09:57:20.072Z,25.10
2019-02-20T09:59:48.871Z,24.73
2019-02-20T10:02:17.585Z,28.07
2019-02-20T10:04:46.417Z,28.13
2019-02-20T10:07:15.211Z,29.07
2019-02-20T10:09:43.931Z,24.37
2019-02-20T10:12:12.687Z,22.67
2019-02-20T10:14:41.455Z,24.70
2019-02-20T10:17:10.189Z,18.03
2019-02-20T10:19:38.935Z,26.60
2019-02-20T10:22:07.667Z,18.87
2019-02-20T10:24:36.427Z,27.20
2019-02-20T10:27:05.177Z,27.37
2019-02-20T10:29:36.766Z,25.80
2019-02-20T10:32:05.529Z,26.60
2019-02-20T10:34:34.420Z,24.07
2019-02-20T10:37:03.151Z,30.00
2019-02-20T10:39:31.965Z,24.63
2019-02-20T10:42:01.057Z,26.90
2019-02-20T10:44:29.786Z,26.73
2019-02-20T10:46:58.638Z,20.13
2019-02-20T10:49:27.450Z,23.87
2019-02-20T10:51:56.145Z,27.30
2019-02-20T10:54:24.953Z,25.73
2019-02-20T10:56:53.717Z,20.07
2019-02-20T10:59:22.477Z,24.23
2019-02-20T11:01:51.302Z,19.03
2019-02-20T11:04:20.106Z,25.70
2019-02-20T11:06:48.918Z,26.63
2019-02-20T11:09:17.723Z,28.77
2019-02-20T11:11:46.541Z,27.80
2019-02-20T11:14:15.386Z,33.27
2019-02-20T11:16:44.376Z,21.40
2019-02-20T11:19:13.097Z,28.63
2019-02-20T11:21:41.930Z,25.43
2019-02-20T11:24:10.660Z,24.60
2019-02-20T11:26:46.266Z,22.80
2019-02-20T11:29:09.909Z,25.73
2019-02-20T11:31:38.668Z,24.50
2019-02-20T11:34:07.486Z,28.47
2019-02-20T11:36:37.277Z,21.13
2019-02-20T11:39:06.402Z,22.37
2019-02-20T11:41:35.217Z,23.03
2019-02-20T11:44:04.011Z,26.33
2019-02-20T11:46:36.465Z,24.57
2019-02-20T11:49:05.170Z,25.83
2019-02-20T11:51:33.927Z,23.80
2019-02-20T11:54:02.646Z,23.23
2019-02-20T11:56:31.505Z,21.07
2019-02-20T11:59:00.294Z,25.30
2019-02-20T12:01:29.037Z,25.30
2019-02-20T12:03:57.775Z,24.27
2019-02-20T12:06:26.512Z,27.87
2019-02-20T12:08:55.674Z,22.43
2019-02-20T12:11:24.561Z,23.30
2019-02-20T12:13:53.314Z,28.90
2019-02-20T12:16:22.115Z,34.57
2019-02-20T12:18:50.884Z,25.77
2019-02-20T12:21:19.696Z,29.10
2019-02-20T12:23:48.436Z,25.33
2019-02-20T12:26:17.267Z,25.30
2019-02-20T12:28:47.227Z,24.30
2019-02-20T12:31:16.201Z,19.87
2019-02-20T12:33:45.062Z,26.07
2019-02-20T12:36:13.808Z,29.63
2019-02-20T12:38:42.533Z,26.37
2019-02-20T12:41:11.418Z,31.17
2019-02-20T12:43:40.206Z,29.37
2019-02-20T12:46:08.998Z,30.03
2019-02-20T12:48:39.027Z,31.57
2019-02-20T12:51:07.954Z,22.57
2019-02-20T12:53:36.787Z,28.33
2019-02-20T12:56:09.938Z,29.47
2019-02-20T12:58:36.020Z,29.00
2019-02-20T13:01:04.764Z,23.93
2019-02-20T13:03:33.520Z,32.80
2019-02-20T13:06:02.242Z,30.13
2019-02-20T13:08:31.065Z,34.23
2019-02-20T13:10:59.768Z,30.53
2019-02-20T13:13:28.534Z,32.60
2019-02-20T13:15:57.272Z,31.17
2019-02-20T13:18:26.016Z,26.50
2019-02-20T13:20:54.827Z,29.90
2019-02-20T13:23:23.645Z,34.00
2019-02-20T13:25:52.461Z,32.97
2019-02-20T13:28:21.301Z,28.07
2019-02-20T13:30:50.097Z,24.50
2019-02-20T13:33:18.861Z,19.03
2019-02-20T13:35:47.629Z,22.37
2019-02-20T13:38:16.479Z,22.77
2019-02-20T13:40:45.241Z,20.33
2019-02-20T13:43:14.080Z,23.13
2019-02-20T13:45:43.288Z,27.77
2019-02-20T13:48:12.106Z,23.00
2019-02-20T13:50:40.993Z,18.83
2019-02-20T13:53:09.897Z,24.80
2019-02-20T13:55:38.697Z,23.00
2019-02-20T13:58:07.522Z,22.10
2019-02-20T14:00:36.340Z,23.23
2019-02-20T14:03:05.475Z,21.30
2019-02-20T14:05:34.279Z,19.83
2019-02-20T14:08:03.101Z,25.77
2019-02-20T14:10:31.961Z,29.60
2019-02-20T14:13:00.793Z,27.03
2019-02-20T14:15:30.091Z,23.17
2019-02-20T14:17:58.875Z,23.50
2019-02-20T14:20:27.674Z,25.77
2019-02-20T14:23:01.186Z,24.20
2019-02-20T14:25:30.010Z,23.73
2019-02-20T14:27:58.812Z,27.03
2019-02-20T14:30:27.659Z,26.00
2019-02-20T14:32:56.449Z,24.90
2019-02-20T14:35:25.269Z,20.63
2019-02-20T14:37:54.107Z,19.90
2019-02-20T14:40:22.888Z,19.00
2019-02-20T14:42:53.292Z,18.50
2019-02-20T14:45:22.138Z,22.23
2019-02-20T14:47:50.939Z,22.53
2019-02-20T14:50:20.049Z,27.80
2019-02-20T14:52:48.883Z,28.90
2019-02-20T14:55:17.708Z,27.20
2019-02-20T14:57:46.562Z,27.67
2019-02-20T15:00:15.404Z,21.73
2019-02-20T15:02:44.194Z,26.00
2019-02-20T15:05:15.800Z,29.23
2019-02-20T15:07:44.596Z,23.20
2019-02-20T15:10:13.432Z,25.60
2019-02-20T15:12:42.274Z,18.13
2019-02-20T15:15:11.122Z,30.53
2019-02-20T15:17:39.920Z,19.37
2019-02-20T15:20:08.857Z,21.23
2019-02-20T15:22:38.544Z,21.13
2019-02-20T15:25:07.532Z,24.90
2019-02-20T15:27:36.338Z,24.37
2019-02-20T15:30:05.842Z,27.67
2019-02-20T15:32:34.636Z,28.63
2019-02-20T15:35:03.977Z,22.80
2019-02-20T15:37:33.499Z,26.10
2019-02-20T15:40:02.316Z,27.07
2019-02-20T15:42:32.316Z,23.07
2019-02-20T15:45:01.197Z,23.50
2019-02-20T15:47:32.095Z,23.07
2019-02-20T15:50:00.946Z,33.57
2019-02-20T15:52:30.133Z,27.40
2019-02-20T15:54:58.891Z,23.43
2019-02-20T15:57:27.701Z,26.17
2019-02-20T15:59:58.589Z,29.00
2019-02-20T16:02:27.397Z,30.00
2019-02-20T16:04:58.524Z,26.60
2019-02-20T16:07:27.366Z,19.37
2019-02-20T16:09:56.198Z,22.60
2019-02-20T16:12:26.392Z,23.23
2019-02-20T16:14:55.148Z,22.20
2019-02-20T16:17:23.990Z,21.10
2019-02-20T16:19:52.839Z,26.23
2019-02-20T16:22:21.619Z,16.93
2019-02-20T16:24:52.629Z,21.77
2019-02-20T16:27:21.462Z,21.40
2019-02-20T16:29:50.311Z,21.70
2019-02-20T16:32:19.115Z,12.70
2019-02-20T16:34:48.323Z,14.63
2019-02-20T16:37:17.126Z,21.50
2019-02-20T16:39:46.199Z,20.77
2019-02-20T16:42:16.123Z,19.20
2019-02-20T16:44:49.597Z,21.53
2019-02-20T16:47:18.456Z,17.17
2019-02-20T16:49:47.308Z,15.23
2019-02-20T16:52:16.248Z,15.83
2019-02-20T16:54:46.790Z,19.33
2019-02-20T16:57:17.159Z,22.50
2019-02-20T16:59:46.994Z,13.10
2019-02-20T17:02:15.816Z,22.00
2019-02-20T17:04:47.185Z,18.23
2019-02-20T17:07:16.157Z,17.30
2019-02-20T17:09:45.385Z,19.03
2019-02-20T17:12:14.215Z,24.63
2019-02-20T17:14:43.062Z,18.53
2019-02-20T17:17:11.950Z,14.57
2019-02-20T17:19:40.807Z,13.20
2019-02-20T17:22:09.663Z,14.60
2019-02-20T17:24:38.460Z,14.27
2019-02-20T17:27:07.298Z,19.80
2019-02-20T17:29:36.144Z,13.63
2019-02-20T17:32:06.162Z,11.63
2019-02-20T17:34:35.025Z,11.50
2019-02-20T17:37:06.654Z,18.47
2019-02-20T17:39:35.443Z,7.57
2019-02-20T17:42:04.312Z,12.40
2019-02-20T17:44:33.140Z,7.20
2019-02-20T17:47:03.758Z,11.43
2019-02-20T17:49:34.946Z,11.10
2019-02-20T17:52:06.257Z,7.67
2019-02-20T17:54:40.928Z,6.07
2019-02-20T17:57:11.230Z,12.97
2019-02-20T17:59:41.718Z,12.50
2019-02-20T18:02:10.961Z,6.77
2019-02-20T18:04:39.785Z,7.63
2019-02-20T18:07:11.826Z,6.77
2019-02-20T18:09:42.433Z,10.83
2019-02-20T18:12:11.391Z,10.03
2019-02-20T18:14:40.131Z,12.30
2019-02-20T18:17:09.036Z,7.10
2019-02-20T18:19:39.952Z,8.23
2019-02-20T18:22:08.737Z,12.23
2019-02-20T18:24:37.576Z,11.03
2019-02-20T18:27:06.437Z,13.80
2019-02-20T18:29:35.243Z,6.93
2019-02-20T18:32:04.050Z,9.80
2019-02-20T18:34:32.935Z,5.80
2019-02-20T18:37:09.739Z,13.13
2019-02-20T18:39:41.356Z,11.80
2019-02-20T18:42:10.331Z,8.20
2019-02-20T18:44:50.919Z,7.73
2019-02-20T18:47:19.720Z,7.33
2019-02-20T18:49:54.258Z,15.00
2019-02-20T18:52:24.289Z,9.47
2019-02-20T18:54:53.119Z,13.00
2019-02-20T18:57:21.942Z,8.53
2019-02-20T18:59:50.782Z,9.47
2019-02-20T19:02:20.734Z,15.27
2019-02-20T19:04:49.648Z,11.77
2019-02-20T19:07:19.999Z,8.10
2019-02-20T19:09:49.294Z,9.73
2019-02-20T19:12:52.311Z,5.57
2019-02-20T19:15:32.801Z,14.50
2019-02-20T19:18:12.539Z,11.03
2019-02-20T19:21:06.336Z,12.50
2019-02-20T19:24:06.364Z,11.07
2019-02-20T19:26:47.498Z,11.97
2019-02-20T19:29:38.461Z,9.80
2019-02-20T19:32:25.102Z,15.50
2019-02-20T19:35:15.746Z,9.57
2019-02-20T19:37:54.123Z,8.87
2019-02-20T19:40:41.211Z,8.23
2019-02-20T19:43:31.477Z,11.20
2019-02-20T19:46:34.799Z,10.07
2019-02-20T19:49:27.591Z,12.90
2019-02-20T19:52:07.269Z,12.67
2019-02-20T19:54:44.544Z,9.03
2019-02-20T19:57:38.516Z,11.60
2019-02-20T20:00:26.277Z,11.53
2019-02-20T20:03:20.279Z,8.30
2019-02-20T20:06:07.130Z,9.87
2019-02-20T20:08:44.396Z,12.37
2019-02-20T20:11:44.491Z,9.20
2019-02-20T20:14:13.704Z,8.67
2019-02-20T20:17:04.769Z,9.10
2019-02-20T20:19:52.813Z,9.77
2019-02-20T20:22:40.791Z,14.23
2019-02-20T20:25:16.189Z,8.50
2019-02-20T20:27:58.055Z,8.97
2019-02-20T20:30:40.865Z,11.13
2019-02-20T20:33:34.949Z,8.63
2019-02-20T20:36:35.255Z,12.43
2019-02-20T20:39:28.464Z,11.77
2019-02-20T20:42:28.624Z,10.13
2019-02-20T20:45:16.666Z,11.57
2019-02-20T20:48:12.131Z,13.33
2019-02-20T20:50:56.364Z,8.43
2019-02-20T20:53:30.437Z,9.37
2019-02-20T20:56:03.235Z,8.50
2019-02-20T20:58:51.290Z,10.00
2019-02-20T21:01:51.683Z,15.40
2019-02-20T21:04:57.754Z,11.23
2019-02-20T21:07:44.749Z,9.30
2019-02-20T21:10:46.562Z,10.70
2019-02-20T21:13:46.652Z,15.63
2019-02-20T21:16:33.432Z,14.60
2019-02-20T21:19:21.842Z,9.47
2019-02-20T21:22:10.091Z,10.40
2019-02-20T21:24:54.916Z,16.60
2019-02-20T21:27:45.822Z,11.93
2019-02-20T21:30:37.100Z,15.17
2019-02-20T21:33:23.796Z,13.80
2019-02-20T21:35:58.787Z,11.37
2019-02-20T21:38:45.431Z,17.80
2019-02-20T21:41:32.253Z,21.57
2019-02-20T21:44:20.259Z,10.83
2019-02-20T21:47:02.600Z,19.50
2019-02-20T21:49:36.986Z,14.23
2019-02-20T21:52:30.826Z,18.57
2019-02-20T21:55:06.984Z,11.47
2019-02-20T21:58:10.376Z,13.60
2019-02-20T22:00:49.633Z,15.83
2019-02-20T22:03:52.709Z,16.10
2019-02-20T22:06:25.598Z,13.57
2019-02-20T22:09:16.344Z,14.07
2019-02-20T22:12:06.990Z,14.50
2019-02-20T22:14:40.334Z,10.90
2019-02-20T22:17:28.429Z,15.63
2019-02-20T22:20:03.912Z,12.83
2019-02-20T22:23:00.873Z,16.03
2019-02-20T22:25:33.095Z,13.07
2019-02-20T22:28:16.931Z,10.83
2019-02-20T22:30:53.244Z,20.40
2019-02-20T22:33:41.116Z,16.60
2019-02-20T22:36:23.454Z,18.60
2019-02-20T22:39:14.160Z,23.67
2019-02-20T22:42:02.073Z,18.57
2019-02-20T22:44:55.423Z,13.83
2019-02-20T22:47:42.208Z,18.33
2019-02-20T22:50:32.244Z,20.43
2019-02-20T22:53:04.439Z,15.93
2019-02-20T22:55:49.485Z,19.47
2019-02-20T22:58:28.226Z,16.27
2019-02-20T23:01:04.852Z,16.40
2019-02-20T23:03:36.035Z,14.83
2019-02-20T23:06:17.505Z,14.67
2019-02-20T23:08:56.653Z,18.50
2019-02-20T23:11:50.916Z,18.63
2019-02-20T23:14:35.499Z,15.63
2019-02-20T23:17:04.210Z,21.80
2019-02-20T23:19:33.000Z,16.83
2019-02-20T23:22:01.757Z,18.07
2019-02-20T23:24:30.537Z,20.97
2019-02-20T23:26:59.261Z,23.77
2019-02-20T23:29:28.054Z,20.00
2019-02-20T23:31:56.784Z,15.53
2019-02-20T23:34:25.506Z,20.20
2019-02-20T23:36:56.321Z,22.33
2019-02-20T23:39:25.064Z,24.67
2019-02-20T23:41:53.884Z,20.93
2019-02-20T23:44:22.631Z,21.87
2019-02-20T23:46:51.430Z,16.80
2019-02-20T23:49:20.168Z,21.90
2019-02-20T23:51:48.998Z,17.17
2019-02-20T23:54:17.784Z,16.60
2019-02-20T23:56:46.616Z,21.30
2019-02-20T23:59:15.420Z,22.17
